Time;durP1;ratioP1;P1;durP2;ratioP2;P2;SDS_P1;SDS_P2;PMS_P1;PMS_P2;Temp;Humidity;BMP_temperature;BMP_pressure;BME280_temperature;BME280_humidity;BME280_pressure;Samples;Min_cycle;Max_cycle;Signal;HPM_P1;HPM_P2
2021/04/17 00:01:36;;;;;;;;;;;;;;;13.88;38.00;100463.87;4379653;32;33101;-89
2021/04/17 00:04:04;;;;;;;;;;;;;;;13.39;38.86;100458.44;4379861;32;33991;-89
2021/04/17 00:06:32;;;;;;;;;;;;;;;13.75;38.36;100458.19;4379668;32;32410;-90
2021/04/17 00:08:59;;;;;;;;;;;;;;;13.31;39.37;100450.81;4391852;32;34487;-90
2021/04/17 00:11:26;;;;;;;;;;;;;;;13.64;38.55;100448.94;4379577;32;34131;-89
2021/04/17 00:13:54;;;;;;;;;;;;;;;13.60;38.58;100452.56;4395361;32;34410;-88
2021/04/17 00:16:21;;;;;;;;;;;;;;;13.33;39.22;100447.22;4388712;32;33476;-89
2021/04/17 00:18:49;;;;;;;;;;;;;;;13.75;38.45;100445.97;4388676;32;34343;-88
2021/04/17 00:21:16;;;;;;;;;;;;;;;14.11;37.74;100444.78;4397677;32;33410;-88
2021/04/17 00:23:43;;;;;;;;;;;;;;;13.56;38.93;100439.59;4393240;32;35188;-88
2021/04/17 00:26:11;;;;;;;;;;;;;;;14.23;37.56;100441.72;4380467;32;34620;-88
2021/04/17 00:28:38;;;;;;;;;;;;;;;13.71;38.53;100436.50;4381688;32;34156;-89
2021/04/17 00:31:05;;;;;;;;;;;;;;;13.85;38.49;100426.41;4381570;32;33011;-88
2021/04/17 00:33:33;;;;;;;;;;;;;;;13.66;38.91;100435.78;4393992;32;34476;-89
2021/04/17 00:36:01;;;;;;;;;;;;;;;13.67;38.78;100427.88;4381497;32;32666;-89
2021/04/17 00:38:28;;;;;;;;;;;;;;;13.45;39.21;100419.00;4393531;32;33299;-91
2021/04/17 00:40:58;;;;;;;;;;;;;;;14.16;37.88;100416.63;4381931;32;34320;-89
2021/04/17 00:43:25;;;;;;;;;;;;;;;13.93;38.33;100413.03;4381455;32;34423;-91
2021/04/17 00:45:52;;;;;;;;;;;;;;;14.19;37.75;100413.91;4380991;32;33130;-91
2021/04/17 00:48:19;;;;;;;;;;;;;;;13.85;38.26;100407.22;4381252;32;33620;-89
2021/04/17 00:50:47;;;;;;;;;;;;;;;13.38;39.34;100402.63;4381161;32;34287;-89
2021/04/17 00:53:15;;;;;;;;;;;;;;;13.33;39.68;100405.34;4381456;32;33138;-90
2021/04/17 00:55:42;;;;;;;;;;;;;;;13.85;38.57;100409.81;4381458;32;32236;-89
2021/04/17 00:58:10;;;;;;;;;;;;;;;13.55;39.13;100409.09;4381368;32;33382;-89
2021/04/17 01:00:37;;;;;;;;;;;;;;;13.66;38.83;100407.81;4381265;32;34210;-91
2021/04/17 01:03:07;;;;;;;;;;;;;;;13.55;39.23;100414.31;4381178;32;33541;-91
2021/04/17 01:05:35;;;;;;;;;;;;;;;12.41;41.74;100418.56;4381379;32;33495;-89
2021/04/17 01:08:03;;;;;;;;;;;;;;;13.73;38.85;100405.00;4381292;32;33565;-91
2021/04/17 01:10:34;;;;;;;;;;;;;;;12.41;42.04;100422.03;4381305;32;34442;-89
2021/04/17 01:13:01;;;;;;;;;;;;;;;12.62;41.40;100406.66;4381371;32;33658;-89
2021/04/17 01:15:29;;;;;;;;;;;;;;;11.83;43.36;100411.34;4381409;32;33291;-88
2021/04/17 01:17:56;;;;;;;;;;;;;;;11.59;43.87;100413.66;4381109;32;33604;-87
2021/04/17 01:20:32;;;;;;;;;;;;;;;12.52;41.79;100411.28;4381600;32;33325;-89
2021/04/17 01:23:12;;;;;;;;;;;;;;;12.65;41.35;100407.41;4408784;32;33154;-89
2021/04/17 01:25:50;;;;;;;;;;;;;;;11.88;42.97;100411.25;4383918;32;32648;-88
2021/04/17 01:28:18;;;;;;;;;;;;;;;12.35;42.06;100410.00;4408627;32;34289;-89
2021/04/17 01:30:45;;;;;;;;;;;;;;;11.09;45.43;100413.97;4383385;32;33264;-89
2021/04/17 01:33:13;;;;;;;;;;;;;;;12.41;42.22;100414.19;4381332;32;33200;-89
2021/04/17 01:35:41;;;;;;;;;;;;;;;12.48;42.05;100405.25;4393701;32;33460;-89
2021/04/17 01:38:12;;;;;;;;;;;;;;;12.79;41.37;100408.75;4393163;32;34171;-89
2021/04/17 01:40:39;;;;;;;;;;;;;;;12.10;42.90;100407.19;4381424;32;33397;-89
2021/04/17 01:43:06;;;;;;;;;;;;;;;11.71;43.94;100404.66;4375845;32;34017;-89
2021/04/17 01:45:33;;;;;;;;;;;;;;;11.76;43.68;100404.56;4389928;32;32713;-88
2021/04/17 01:48:01;;;;;;;;;;;;;;;11.79;43.64;100402.75;4400286;32;33142;-89
2021/04/17 01:50:31;;;;;;;;;;;;;;;12.99;40.79;100398.56;4394615;32;34239;-88
2021/04/17 01:52:59;;;;;;;;;;;;;;;12.69;41.38;100393.34;4382228;32;33135;-90
2021/04/17 01:55:26;;;;;;;;;;;;;;;11.94;43.08;100404.09;4393937;32;32368;-88
2021/04/17 01:57:53;;;;;;;;;;;;;;;11.90;43.08;100389.41;4381635;32;34372;-89
2021/04/17 02:00:20;;;;;;;;;;;;;;;12.42;42.01;100394.13;4393624;32;33748;-88
2021/04/17 02:02:47;;;;;;;;;;;;;;;12.50;41.78;100387.81;4393337;32;33439;-89
2021/04/17 02:05:15;;;;;;;;;;;;;;;13.16;40.10;100389.34;4380925;32;32805;-89
2021/04/17 02:07:43;;;;;;;;;;;;;;;13.38;39.62;100393.94;4380675;32;33576;-91
2021/04/17 02:10:10;;;;;;;;;;;;;;;13.14;39.81;100384.16;4380956;32;33055;-89
2021/04/17 02:12:38;;;;;;;;;;;;;;;12.92;40.28;100383.94;4393541;32;34641;-91
2021/04/17 02:15:06;;;;;;;;;;;;;;;12.87;40.54;100391.09;4380727;32;33373;-89
2021/04/17 02:17:54;;;;;;;;;;;;;;;12.74;40.67;100390.59;4380735;32;34471;-88
2021/04/17 02:20:27;;;;;;;;;;;;;;;12.82;40.65;100372.09;4368324;32;34638;-91
2021/04/17 02:22:54;;;;;;;;;;;;;;;12.84;40.45;100370.25;4380552;32;33488;-91
2021/04/17 02:25:21;;;;;;;;;;;;;;;12.55;41.14;100373.75;4393044;32;31903;-89
2021/04/17 02:27:48;;;;;;;;;;;;;;;12.14;41.67;100374.88;4380760;32;33211;-88
2021/04/17 02:30:16;;;;;;;;;;;;;;;12.82;40.74;100374.69;4393072;32;33100;-88
2021/04/17 02:32:43;;;;;;;;;;;;;;;11.10;44.72;100378.31;4380680;32;32897;-88
2021/04/17 02:35:11;;;;;;;;;;;;;;;12.02;42.20;100367.38;4406895;32;33682;-88
2021/04/17 02:37:39;;;;;;;;;;;;;;;11.42;43.50;100369.72;4380981;32;33011;-89
2021/04/17 02:40:06;;;;;;;;;;;;;;;11.86;43.06;100364.28;4380852;32;34508;-88
2021/04/17 02:42:34;;;;;;;;;;;;;;;11.88;42.87;100364.25;4380630;32;32804;-88
2021/04/17 02:45:00;;;;;;;;;;;;;;;10.82;45.33;100365.87;4380531;32;33270;-88
2021/04/17 02:47:27;;;;;;;;;;;;;;;10.96;45.51;100370.81;4380356;32;33029;-91
2021/04/17 02:49:55;;;;;;;;;;;;;;;11.11;44.70;100369.59;4379580;32;33039;-88
2021/04/17 02:52:22;;;;;;;;;;;;;;;10.72;45.76;100367.00;4380375;32;34294;-89
2021/04/17 02:54:49;;;;;;;;;;;;;;;11.09;44.75;100369.63;4380458;32;32758;-89
2021/04/17 02:57:16;;;;;;;;;;;;;;;11.47;43.59;100361.78;4368193;32;33840;-88
2021/04/17 02:59:43;;;;;;;;;;;;;;;11.50;43.58;100362.56;4380452;32;34206;-89
2021/04/17 03:02:10;;;;;;;;;;;;;;;11.45;43.65;100358.38;4392599;32;34563;-88
2021/04/17 03:04:37;;;;;;;;;;;;;;;12.11;42.20;100358.41;4380347;32;32582;-89
2021/04/17 03:07:04;;;;;;;;;;;;;;;11.55;43.25;100362.44;4380135;32;33185;-88
2021/04/17 03:09:32;;;;;;;;;;;;;;;11.61;42.97;100370.13;4380540;32;33429;-89
2021/04/17 03:12:00;;;;;;;;;;;;;;;11.97;42.58;100366.63;4380740;32;33209;-88
2021/04/17 03:14:27;;;;;;;;;;;;;;;11.47;43.42;100369.59;4380496;32;32392;-88
2021/04/17 03:16:54;;;;;;;;;;;;;;;11.21;44.13;100368.50;4380147;32;32830;-89
2021/04/17 03:19:22;;;;;;;;;;;;;;;12.22;41.91;100364.22;4367862;32;35477;-88
2021/04/17 03:21:49;;;;;;;;;;;;;;;11.08;44.27;100364.47;4392299;32;33646;-89
2021/04/17 03:24:16;;;;;;;;;;;;;;;11.23;44.03;100363.22;4392414;32;32817;-88
2021/04/17 03:26:44;;;;;;;;;;;;;;;11.76;42.83;100353.19;4380121;32;33038;-89
2021/04/17 03:29:11;;;;;;;;;;;;;;;12.16;41.86;100356.53;4392540;32;33401;-88
2021/04/17 03:31:38;;;;;;;;;;;;;;;12.26;41.87;100354.50;4379932;32;32863;-88
2021/04/17 03:34:06;;;;;;;;;;;;;;;12.29;41.44;100351.84;4367719;32;34429;-90
2021/04/17 03:36:33;;;;;;;;;;;;;;;12.31;41.53;100350.91;4379979;32;33192;-89
2021/04/17 03:39:00;;;;;;;;;;;;;;;12.82;40.35;100341.53;4380009;32;33735;-89
2021/04/17 03:41:27;;;;;;;;;;;;;;;12.91;39.99;100350.00;4380050;32;33511;-89
2021/04/17 03:43:54;;;;;;;;;;;;;;;12.74;40.35;100348.78;4380074;32;32344;-89
2021/04/17 03:46:22;;;;;;;;;;;;;;;12.81;40.17;100350.28;4379847;32;34462;-89
2021/04/17 03:48:49;;;;;;;;;;;;;;;13.02;39.61;100353.16;4392036;32;34666;-90
2021/04/17 03:51:16;;;;;;;;;;;;;;;13.16;39.25;100358.81;4394035;32;33263;-88
2021/04/17 03:53:44;;;;;;;;;;;;;;;13.36;38.69;100355.59;4382124;32;32854;-89
2021/04/17 03:56:11;;;;;;;;;;;;;;;11.63;42.44;100368.34;4382501;32;33729;-89
2021/04/17 03:58:39;;;;;;;;;;;;;;;11.77;42.38;100367.13;4394708;32;33915;-89
2021/04/17 04:01:06;;;;;;;;;;;;;;;11.13;43.74;100370.44;4382460;32;33907;-89
2021/04/17 04:03:33;;;;;;;;;;;;;;;10.30;45.47;100375.59;4369945;32;32485;-89
2021/04/17 04:06:00;;;;;;;;;;;;;;;9.93;47.24;100371.09;4394255;32;33479;-89
2021/04/17 04:08:27;;;;;;;;;;;;;;;10.27;46.51;100368.72;4381868;32;33221;-89
2021/04/17 04:10:55;;;;;;;;;;;;;;;11.13;44.33;100362.59;4394361;32;34362;-89
2021/04/17 04:13:22;;;;;;;;;;;;;;;11.61;43.37;100358.84;4394513;32;32924;-89
2021/04/17 04:15:49;;;;;;;;;;;;;;;11.99;42.18;100359.59;4382116;32;34171;-89
2021/04/17 04:18:16;;;;;;;;;;;;;;;11.65;43.02;100369.16;4381796;32;34240;-88
2021/04/17 04:20:43;;;;;;;;;;;;;;;11.96;42.37;100372.75;4382354;32;34055;-89
2021/04/17 04:23:10;;;;;;;;;;;;;;;11.90;42.31;100373.75;4382192;32;32630;-89
2021/04/17 04:25:37;;;;;;;;;;;;;;;12.43;41.16;100381.06;4381651;32;33116;-89
2021/04/17 04:28:04;;;;;;;;;;;;;;;12.64;40.88;100379.56;4393987;32;32807;-89
2021/04/17 04:30:31;;;;;;;;;;;;;;;12.49;41.10;100380.84;4381504;32;32710;-88
2021/04/17 04:32:58;;;;;;;;;;;;;;;13.11;39.89;100381.66;4381493;32;32978;-89
2021/04/17 04:35:25;;;;;;;;;;;;;;;12.98;40.03;100385.53;4381987;32;34176;-88
2021/04/17 04:37:52;;;;;;;;;;;;;;;12.88;40.16;100392.78;4381604;32;32835;-89
2021/04/17 04:40:20;;;;;;;;;;;;;;;13.21;39.59;100384.81;4394001;32;34140;-89
2021/04/17 04:42:47;;;;;;;;;;;;;;;13.16;39.79;100384.97;4397365;32;32725;-89
2021/04/17 04:45:14;;;;;;;;;;;;;;;13.55;39.05;100388.12;4402498;32;33360;-89
2021/04/17 04:47:42;;;;;;;;;;;;;;;13.49;39.23;100394.44;4402925;32;33285;-90
2021/04/17 04:50:09;;;;;;;;;;;;;;;13.50;39.09;100396.16;4390205;32;32702;-91
2021/04/17 04:52:36;;;;;;;;;;;;;;;13.20;39.90;100393.56;4401179;32;32492;-88
2021/04/17 04:55:04;;;;;;;;;;;;;;;13.42;39.57;100395.56;4399221;32;33491;-88
2021/04/17 04:57:31;;;;;;;;;;;;;;;13.62;39.05;100395.75;4381655;32;32986;-89
2021/04/17 04:59:59;;;;;;;;;;;;;;;13.42;39.58;100398.16;4406500;32;34257;-89
2021/04/17 05:02:27;;;;;;;;;;;;;;;13.31;39.81;100391.47;4393733;32;33305;-88
2021/04/17 05:04:54;;;;;;;;;;;;;;;13.73;38.98;100392.75;4381355;32;33523;-89
2021/04/17 05:07:22;;;;;;;;;;;;;;;13.73;39.04;100390.16;4393551;32;33188;-88
2021/04/17 05:09:50;;;;;;;;;;;;;;;13.27;40.09;100386.37;4369057;32;33120;-89
2021/04/17 05:12:17;;;;;;;;;;;;;;;13.76;39.02;100397.03;4380593;32;32878;-89
2021/04/17 05:14:46;;;;;;;;;;;;;;;14.03;38.50;100390.84;4381780;32;33572;-89
2021/04/17 05:17:18;;;;;;;;;;;;;;;13.36;40.02;100392.22;4382029;32;33178;-90
2021/04/17 05:19:45;;;;;;;;;;;;;;;13.86;38.92;100403.69;4381482;32;33438;-89
2021/04/17 05:22:12;;;;;;;;;;;;;;;13.90;39.00;100401.84;4380806;32;33490;-89
2021/04/17 05:24:40;;;;;;;;;;;;;;;13.73;39.09;100392.75;4381437;32;33125;-89
2021/04/17 05:27:07;;;;;;;;;;;;;;;14.02;38.62;100394.38;4380926;32;33660;-88
2021/04/17 05:29:34;;;;;;;;;;;;;;;13.25;40.46;100396.91;4393428;32;34100;-89
2021/04/17 05:32:01;;;;;;;;;;;;;;;14.10;38.59;100395.91;4405897;32;32912;-89
2021/04/17 05:34:29;;;;;;;;;;;;;;;14.14;38.46;100393.09;4393403;32;32912;-89
2021/04/17 05:36:56;;;;;;;;;;;;;;;13.84;39.19;100392.41;4381263;32;33343;-90
2021/04/17 05:39:23;;;;;;;;;;;;;;;13.99;38.84;100394.50;4381652;32;32939;-89
2021/04/17 05:41:51;;;;;;;;;;;;;;;13.78;39.11;100392.63;4381158;32;32303;-88
2021/04/17 05:44:18;;;;;;;;;;;;;;;14.09;38.62;100395.03;4393508;32;33212;-89
2021/04/17 05:46:46;;;;;;;;;;;;;;;14.23;38.29;100394.56;4380960;32;33578;-89
2021/04/17 05:49:13;;;;;;;;;;;;;;;14.08;38.63;100395.94;4380975;32;33056;-89
2021/04/17 05:51:41;;;;;;;;;;;;;;;14.26;38.20;100396.22;4380737;32;33090;-89
2021/04/17 05:54:09;;;;;;;;;;;;;;;13.79;39.18;100403.03;4393275;32;32681;-88
2021/04/17 05:56:36;;;;;;;;;;;;;;;13.80;39.44;100393.41;4381184;32;33541;-89
2021/04/17 05:59:04;;;;;;;;;;;;;;;13.91;39.49;100400.94;4393471;32;33020;-89
2021/04/17 06:01:31;;;;;;;;;;;;;;;13.08;41.27;100399.19;4393723;32;32680;-89
2021/04/17 06:03:59;;;;;;;;;;;;;;;14.06;38.98;100396.91;4407441;32;34340;-89
2021/04/17 06:06:26;;;;;;;;;;;;;;;13.68;39.89;100400.78;4394035;32;34631;-89
2021/04/17 06:08:53;;;;;;;;;;;;;;;13.73;39.96;100399.78;4381529;32;34129;-89
2021/04/17 06:11:20;;;;;;;;;;;;;;;14.31;38.67;100400.38;4396655;32;32001;-89
2021/04/17 06:13:47;;;;;;;;;;;;;;;14.46;38.31;100398.09;4389861;32;33139;-89
2021/04/17 06:16:14;;;;;;;;;;;;;;;13.65;39.98;100389.56;4403549;32;32755;-89
2021/04/17 06:18:41;;;;;;;;;;;;;;;13.59;40.51;100395.84;4403122;32;33163;-89
2021/04/17 06:21:11;;;;;;;;;;;;;;;14.10;39.21;100398.53;4390245;32;32033;-89
2021/04/17 06:23:38;;;;;;;;;;;;;;;14.11;39.29;100392.38;4385706;32;33367;-88
2021/04/17 06:26:05;;;;;;;;;;;;;;;14.36;38.48;100384.50;4394354;32;33242;-89
2021/04/17 06:28:33;;;;;;;;;;;;;;;14.32;38.51;100394.22;4380839;32;33970;-88
2021/04/17 06:31:00;;;;;;;;;;;;;;;12.94;41.60;100387.38;4393333;32;33255;-88
2021/04/17 06:33:28;;;;;;;;;;;;;;;12.97;41.84;100391.69;4381039;32;33052;-89
2021/04/17 06:35:55;;;;;;;;;;;;;;;13.90;39.82;100389.56;4380795;32;33482;-89
2021/04/17 06:38:22;;;;;;;;;;;;;;;14.04;39.40;100389.13;4393354;32;33036;-89
2021/04/17 06:40:50;;;;;;;;;;;;;;;13.89;39.59;100389.63;4380825;32;32462;-89
2021/04/17 06:43:21;;;;;;;;;;;;;;;14.48;38.51;100391.06;4380725;32;33106;-89
2021/04/17 06:45:49;;;;;;;;;;;;;;;14.11;39.38;100393.22;4380835;32;32930;-89
2021/04/17 06:48:17;;;;;;;;;;;;;;;13.96;39.56;100389.37;4352864;32;906496;-89
2021/04/17 06:50:45;;;;;;;;;;;;;;;12.67;42.88;100397.78;4392903;32;31813;-89
2021/04/17 06:53:12;;;;;;;;;;;;;;;13.46;41.25;100394.53;4380375;32;34025;-89
2021/04/17 06:55:40;;;;;;;;;;;;;;;13.20;41.69;100390.94;4380359;32;33101;-90
2021/04/17 06:58:06;;;;;;;;;;;;;;;14.64;38.61;100379.09;4392753;32;33481;-89
2021/04/17 07:00:33;;;;;;;;;;;;;;;15.42;36.97;100386.59;4380109;32;32887;-90
2021/04/17 07:03:01;;;;;;;;;;;;;;;15.34;36.66;100382.50;4392520;32;32813;-89
2021/04/17 07:05:28;;;;;;;;;;;;;;;15.74;35.61;100379.13;4380704;32;34267;-89
2021/04/17 07:07:55;;;;;;;;;;;;;;;15.15;36.84;100381.53;4380029;32;33160;-90
2021/04/17 07:10:23;;;;;;;;;;;;;;;14.26;38.81;100376.09;4380638;32;33880;-89
2021/04/17 07:12:50;;;;;;;;;;;;;;;14.66;37.40;100385.13;4380303;32;33053;-90
2021/04/17 07:15:17;;;;;;;;;;;;;;;15.39;36.42;100382.31;4380305;32;33450;-90
2021/04/17 07:17:45;;;;;;;;;;;;;;;14.04;39.37;100386.50;4392696;32;33496;-89
2021/04/17 07:20:16;;;;;;;;;;;;;;;14.51;38.21;100376.03;4380341;32;32227;-90
2021/04/17 07:22:43;;;;;;;;;;;;;;;15.35;36.50;100376.31;4380474;32;33752;-89
2021/04/17 07:25:11;;;;;;;;;;;;;;;15.31;36.35;100377.38;4392739;32;33444;-90
2021/04/17 07:27:41;;;;;;;;;;;;;;;15.00;36.71;100373.34;4404832;32;33062;-90
2021/04/17 07:30:14;;;;;;;;;;;;;;;16.17;34.76;100375.53;4405319;32;32385;-89
2021/04/17 07:32:46;;;;;;;;;;;;;;;15.25;36.70;100377.62;4404686;32;33091;-89
2021/04/17 07:35:21;;;;;;;;;;;;;;;15.76;35.29;100364.19;4393705;32;33782;-91
2021/04/17 07:37:49;;;;;;;;;;;;;;;16.18;34.76;100368.50;4381899;32;33143;-90
2021/04/17 07:40:20;;;;;;;;;;;;;;;16.36;34.37;100365.06;4382030;32;32117;-90
2021/04/17 07:42:48;;;;;;;;;;;;;;;17.38;32.34;100356.84;4406901;32;33171;-90
2021/04/17 07:45:24;;;;;;;;;;;;;;;17.43;32.07;100365.38;4383791;32;33717;-90
2021/04/17 07:47:52;;;;;;;;;;;;;;;15.08;36.63;100364.34;4390204;32;32779;-90
2021/04/17 07:50:21;;;;;;;;;;;;;;;15.70;35.71;100360.91;4403720;32;32699;-91
2021/04/17 07:52:49;;;;;;;;;;;;;;;16.37;34.08;100361.50;4391054;32;32275;-91
2021/04/17 07:55:17;;;;;;;;;;;;;;;15.47;35.99;100361.00;4396165;32;33071;-90
2021/04/17 07:57:53;;;;;;;;;;;;;;;15.24;36.63;100367.19;4382799;32;33420;-91
2021/04/17 08:00:22;;;;;;;;;;;;;;;16.08;35.10;100354.94;4382904;32;33323;-90
2021/04/17 08:02:51;;;;;;;;;;;;;;;16.75;33.24;100355.44;4394240;32;33322;-90
2021/04/17 08:05:20;;;;;;;;;;;;;;;16.60;33.42;100359.59;4381681;32;32767;-90
2021/04/17 08:07:50;;;;;;;;;;;;;;;16.55;34.06;100358.97;4369171;32;32915;-90
2021/04/17 08:10:19;;;;;;;;;;;;;;;16.62;33.95;100349.00;4369334;32;31955;-91
2021/04/17 08:12:47;;;;;;;;;;;;;;;17.16;32.38;100346.50;4381395;32;33916;-90
2021/04/17 08:15:17;;;;;;;;;;;;;;;16.93;32.84;100356.34;4369381;32;34339;-89
2021/04/17 08:17:45;;;;;;;;;;;;;;;16.56;33.54;100351.94;4369476;32;32914;-91
2021/04/17 08:20:27;;;;;;;;;;;;;;;17.24;32.30;100341.69;4372101;32;31703;-90
2021/04/17 08:22:55;;;;;;;;;;;;;;;17.53;31.45;100349.94;4369253;32;32921;-90
2021/04/17 08:25:23;;;;;;;;;;;;;;;17.40;31.46;100338.31;4369023;32;33932;-90
2021/04/17 08:27:51;;;;;;;;;;;;;;;18.09;30.12;100344.50;4368837;32;32890;-90
2021/04/17 08:30:19;;;;;;;;;;;;;;;16.89;32.32;100338.13;4381406;32;33340;-91
2021/04/17 08:32:47;;;;;;;;;;;;;;;17.68;31.17;100338.63;4381393;32;34768;-90
2021/04/17 08:35:16;;;;;;;;;;;;;;;18.30;29.84;100335.44;4381494;32;34795;-91
2021/04/17 08:37:55;;;;;;;;;;;;;;;18.62;29.12;100340.75;4368932;32;32972;-90
2021/04/17 08:40:36;;;;;;;;;;;;;;;18.64;29.04;100327.47;4393924;32;32552;-90
2021/04/17 08:43:09;;;;;;;;;;;;;;;18.64;29.15;100330.97;4396376;32;33161;-90
2021/04/17 08:45:37;;;;;;;;;;;;;;;19.11;28.76;100333.69;4410624;32;35032;-90
2021/04/17 08:48:05;;;;;;;;;;;;;;;19.14;28.72;100333.50;4370400;32;33167;-90
2021/04/17 08:50:34;;;;;;;;;;;;;;;19.50;28.36;100332.31;4371749;32;32287;-91
2021/04/17 08:53:05;;;;;;;;;;;;;;;19.40;28.14;100331.16;4370811;32;32980;-91
2021/04/17 08:55:36;;;;;;;;;;;;;;;18.52;29.43;100335.13;4369770;32;33394;-91
2021/04/17 08:58:10;;;;;;;;;;;;;;;18.43;29.65;100329.53;4393432;32;33904;-90
2021/04/17 09:00:39;;;;;;;;;;;;;;;17.86;30.48;100328.91;4369087;32;33136;-90
2021/04/17 09:03:06;;;;;;;;;;;;;;;18.42;29.65;100319.91;4393691;32;34025;-90
2021/04/17 09:05:44;;;;;;;;;;;;;;;18.63;29.38;100318.72;4393808;32;34842;-89
2021/04/17 09:08:13;;;;;;;;;;;;;;;17.99;30.18;100315.13;4368830;32;33740;-90
2021/04/17 09:10:41;;;;;;;;;;;;;;;18.35;29.42;100317.59;4368816;32;32384;-90
2021/04/17 09:13:08;;;;;;;;;;;;;;;17.69;30.68;100313.97;4381019;32;32917;-89
2021/04/17 09:15:52;;;;;;;;;;;;;;;17.03;31.74;100320.78;4393524;32;33044;-90
2021/04/17 09:18:37;;;;;;;;;;;;;;;18.44;29.51;100318.00;4381240;32;34101;-90
2021/04/17 09:21:07;;;;;;;;;;;;;;;18.53;29.33;100320.16;4407332;32;33994;-91
2021/04/17 09:23:40;;;;;;;;;;;;;;;18.13;29.83;100315.22;4393541;32;32867;-90
2021/04/17 09:26:07;;;;;;;;;;;;;;;17.80;30.60;100310.81;4394096;32;33430;-90
2021/04/17 09:28:37;;;;;;;;;;;;;;;17.38;31.06;100309.44;4368968;32;33922;-90
2021/04/17 09:31:07;;;;;;;;;;;;;;;18.27;29.59;100311.87;4369329;32;32519;-91
2021/04/17 09:33:34;;;;;;;;;;;;;;;17.75;30.26;100309.31;4381119;32;33961;-90
2021/04/17 09:36:02;;;;;;;;;;;;;;;18.63;29.10;100302.03;4371338;32;33751;-90
2021/04/17 09:38:30;;;;;;;;;;;;;;;18.55;29.01;100302.44;4388411;32;33382;-90
2021/04/17 09:40:57;;;;;;;;;;;;;;;19.41;27.97;100302.03;4389284;32;33567;-91
2021/04/17 09:43:26;;;;;;;;;;;;;;;19.92;27.29;100299.00;4376492;32;33950;-90
2021/04/17 09:45:54;;;;;;;;;;;;;;;19.41;27.59;100299.38;4374520;32;33411;-91
2021/04/17 09:48:22;;;;;;;;;;;;;;;18.58;28.91;100304.91;4369665;32;32743;-91
2021/04/17 09:50:51;;;;;;;;;;;;;;;19.38;27.66;100301.34;4381684;32;32451;-91
2021/04/17 09:53:34;;;;;;;;;;;;;;;18.87;28.17;100298.00;4381795;32;34376;-90
2021/04/17 09:56:02;;;;;;;;;;;;;;;19.51;27.28;100297.03;4393373;32;33329;-91
2021/04/17 09:58:29;;;;;;;;;;;;;;;19.61;27.25;100298.19;4392881;32;33581;-91
2021/04/17 10:01:27;;;;;;;;;;;;;;;19.83;27.26;100294.28;4405804;32;32746;-90
2021/04/17 10:04:00;;;;;;;;;;;;;;;19.27;28.17;100294.87;4381045;32;33560;-91
2021/04/17 10:06:34;;;;;;;;;;;;;;;20.03;27.00;100287.75;4368790;32;33226;-91
2021/04/17 10:09:21;;;;;;;;;;;;;;;20.11;26.92;100289.94;4380556;32;34352;-90
2021/04/17 10:11:49;;;;;;;;;;;;;;;20.25;26.72;100278.47;4393294;32;32843;-90
2021/04/17 10:14:17;;;;;;;;;;;;;;;19.06;28.48;100296.12;4368543;32;34017;-91
2021/04/17 10:16:45;;;;;;;;;;;;;;;19.26;27.96;100285.25;4380946;32;33009;-91
2021/04/17 10:19:13;;;;;;;;;;;;;;;19.33;28.09;100289.25;4393525;32;33535;-91
2021/04/17 10:21:42;;;;;;;;;;;;;;;19.13;28.23;100284.28;4368743;32;32203;-91
2021/04/17 10:24:24;;;;;;;;;;;;;;;20.21;26.61;100282.25;4368251;32;33118;-91
2021/04/17 10:27:05;;;;;;;;;;;;;;;19.45;27.26;100284.16;4368167;32;32662;-91
2021/04/17 10:29:35;;;;;;;;;;;;;;;19.51;26.95;100284.66;4381287;32;34860;-91
2021/04/17 10:32:05;;;;;;;;;;;;;;;19.58;26.89;100279.84;4393131;32;33038;-91
2021/04/17 10:34:33;;;;;;;;;;;;;;;20.32;25.75;100282.44;4393232;32;33601;-90
2021/04/17 10:37:03;;;;;;;;;;;;;;;20.29;25.82;100274.69;4380389;32;33228;-90
2021/04/17 10:39:30;;;;;;;;;;;;;;;19.91;26.37;100272.66;4368206;32;32768;-90
2021/04/17 10:41:58;;;;;;;;;;;;;;;20.14;26.07;100273.84;4380749;32;33763;-90
2021/04/17 10:44:25;;;;;;;;;;;;;;;20.18;25.74;100278.88;4368248;32;32815;-91
2021/04/17 10:46:53;;;;;;;;;;;;;;;20.07;25.63;100267.25;4380993;32;34906;-91
2021/04/17 10:49:31;;;;;;;;;;;;;;;19.77;26.04;100273.44;4368019;32;33713;-91
2021/04/17 10:51:59;;;;;;;;;;;;;;;19.60;26.32;100270.03;4367907;32;31744;-91
2021/04/17 10:54:26;;;;;;;;;;;;;;;19.98;25.69;100269.53;4392809;32;33956;-91
2021/04/17 10:56:54;;;;;;;;;;;;;;;19.28;26.61;100264.88;4367921;32;33316;-91
2021/04/17 10:59:22;;;;;;;;;;;;;;;20.11;25.51;100260.84;4368346;32;33688;-90
2021/04/17 11:01:49;;;;;;;;;;;;;;;19.64;26.04;100260.97;4368173;32;32966;-91
2021/04/17 11:04:16;;;;;;;;;;;;;;;20.12;25.63;100257.25;4380187;32;33835;-91
2021/04/17 11:06:48;;;;;;;;;;;;;;;19.40;26.60;100262.44;4367947;32;32733;-90
2021/04/17 11:09:16;;;;;;;;;;;;;;;19.17;27.09;100267.31;4382248;32;34566;-91
2021/04/17 11:11:50;;;;;;;;;;;;;;;20.05;25.80;100263.84;4370498;32;32525;-90
2021/04/17 11:14:21;;;;;;;;;;;;;;;20.43;25.24;100260.59;4395304;32;34253;-90
2021/04/17 11:16:50;;;;;;;;;;;;;;;19.59;26.44;100268.34;4382778;32;32969;-90
2021/04/17 11:19:27;;;;;;;;;;;;;;;18.12;28.50;100266.09;4381540;32;33333;-91
2021/04/17 11:22:11;;;;;;;;;;;;;;;17.56;29.68;100269.91;4405562;32;32867;-91
2021/04/17 11:24:39;;;;;;;;;;;;;;;17.88;29.27;100273.47;4380186;32;32960;-91
2021/04/17 11:27:07;;;;;;;;;;;;;;;17.56;29.52;100273.38;4380451;32;32666;-90
2021/04/17 11:29:34;;;;;;;;;;;;;;;18.75;27.68;100266.19;4367518;32;32617;-91
2021/04/17 11:32:01;;;;;;;;;;;;;;;19.70;26.31;100267.69;4380291;32;34050;-91
2021/04/17 11:34:30;;;;;;;;;;;;;;;19.81;25.91;100269.69;4392663;32;34797;-90
2021/04/17 11:36:57;;;;;;;;;;;;;;;18.83;27.41;100277.16;4367862;32;33919;-91
2021/04/17 11:39:26;;;;;;;;;;;;;;;19.39;26.56;100273.97;4380276;32;34004;-91
2021/04/17 11:41:53;;;;;;;;;;;;;;;19.34;26.53;100269.81;4367522;32;32852;-91
2021/04/17 11:44:21;;;;;;;;;;;;;;;20.25;25.24;100267.87;4368833;32;33954;-91
2021/04/17 11:46:47;;;;;;;;;;;;;;;19.47;26.22;100259.34;4375493;32;32783;-91
2021/04/17 11:49:15;;;;;;;;;;;;;;;19.18;26.81;100255.81;4386439;32;34445;-90
2021/04/17 11:51:42;;;;;;;;;;;;;;;19.69;26.00;100248.34;4373362;32;32066;-90
2021/04/17 11:54:10;;;;;;;;;;;;;;;20.25;25.13;100249.38;4386551;32;32997;-91
2021/04/17 11:56:38;;;;;;;;;;;;;;;19.95;25.64;100247.72;4381666;32;32941;-90
2021/04/17 11:59:04;;;;;;;;;;;;;;;20.69;24.72;100248.34;4370248;32;32641;-91
2021/04/17 12:01:33;;;;;;;;;;;;;;;20.25;25.25;100249.38;4380193;32;33417;-90
2021/04/17 12:04:01;;;;;;;;;;;;;;;20.79;24.62;100248.59;4379779;32;32930;-90
2021/04/17 12:06:29;;;;;;;;;;;;;;;20.50;25.36;100244.22;4392002;32;34496;-90
2021/04/17 12:09:01;;;;;;;;;;;;;;;20.66;25.21;100249.38;4380255;32;34876;-91
2021/04/17 12:11:28;;;;;;;;;;;;;;;21.19;24.58;100240.63;4391824;32;34281;-91
2021/04/17 12:13:55;;;;;;;;;;;;;;;20.87;24.89;100238.34;4366799;32;33713;-90
2021/04/17 12:16:22;;;;;;;;;;;;;;;21.04;24.79;100237.22;4366978;32;33178;-91
2021/04/17 12:18:49;;;;;;;;;;;;;;;21.29;24.25;100241.72;4367210;32;33730;-90
2021/04/17 12:21:16;;;;;;;;;;;;;;;21.13;24.45;100230.47;4367110;32;31985;-90
2021/04/17 12:23:44;;;;;;;;;;;;;;;21.05;24.68;100235.41;4381872;32;34038;-91
2021/04/17 12:26:11;;;;;;;;;;;;;;;20.69;24.96;100235.97;4381539;32;33671;-91
2021/04/17 12:28:38;;;;;;;;;;;;;;;20.71;24.85;100233.19;4393825;32;33527;-91
2021/04/17 12:31:07;;;;;;;;;;;;;;;20.57;24.62;100226.16;4394130;32;33243;-91
2021/04/17 12:33:34;;;;;;;;;;;;;;;20.42;24.98;100229.78;4368986;32;33007;-91
2021/04/17 12:36:02;;;;;;;;;;;;;;;19.66;26.22;100226.53;4381340;32;33275;-91
2021/04/17 12:38:30;;;;;;;;;;;;;;;20.52;25.28;100231.72;4381399;32;34009;-90
2021/04/17 12:40:57;;;;;;;;;;;;;;;20.78;25.21;100229.22;4393973;32;34036;-91
2021/04/17 12:43:24;;;;;;;;;;;;;;;20.87;25.18;100224.25;4381747;32;33631;-92